KGUL

Gunnison

Gunnison, Texas, USA
METAR KGUL 230535Z AUTO 06011KT 2 1/2SM BR BKN012 OVC020 25/23 A3003 RMK A01
Observed Flight Rules
Oct-23 @ 05:35 UTC (19 minutes ago) Instrument Flight Rules
Wind Visibility Clouds Conditions
60° at 11 knots 2 1/2 miles
  • Broken at 1,200' AGL
  • Overcast at 2,000' AGL
  • Mist
Temperatures Readings
Current 25°C / 77°F
Dewpoint 23°C / 73°F
Humidity 89%
Altimeter 30.03" Hg
Pressure 1017 hPa
Elevation 30
METAR KGUL 230535Z AUTO 06011KT 2 1/2SM BR BKN012 OVC020 25/23 A3003 RMK A01
Observed Flight Rules
Oct-23 @ 05:35 UTC
(19 minutes ago)
IFR
Wind Visibility
60° at 11 knots 2 1/2 miles
Clouds
  • Broken at 1,200' AGL
  • Overcast at 2,000' AGL
Conditions
  • Mist
Temperature Dewpoint
25°C / 77°F 23°C / 73°F
Humidity Altimeter Pressure
89% 30.03" Hg 1017 hPa